createdAt,value
2023-11-03T00:02:09.460Z,95565.72
2023-11-03T00:04:39.403Z,95558.13
2023-11-03T00:07:07.465Z,95552.75
2023-11-03T00:09:37.380Z,95544.03
2023-11-03T00:12:07.269Z,95537.63
2023-11-03T00:14:34.989Z,95533.88
2023-11-03T00:17:02.397Z,95529.13
2023-11-03T00:19:29.871Z,95520.44
2023-11-03T00:21:57.123Z,95526.97
2023-11-03T00:24:24.481Z,95509.59
2023-11-03T00:26:55.381Z,95516.78
2023-11-03T00:29:28.748Z,95529.59
2023-11-03T00:31:55.836Z,95530.22
2023-11-03T00:34:23.831Z,95532.84
2023-11-03T00:36:50.984Z,95534.44
2023-11-03T00:39:20.190Z,95538.16
2023-11-03T00:41:51.044Z,95529.50
2023-11-03T00:44:19.319Z,95527.97
2023-11-03T00:46:47.650Z,95518.88
2023-11-03T00:49:15.538Z,95520.66
2023-11-03T00:51:42.760Z,95516.97
2023-11-03T00:54:11.233Z,95505.56
2023-11-03T00:56:40.341Z,95500.94
2023-11-03T00:59:09.054Z,95508.94
2023-11-03T01:01:37.096Z,95507.84
2023-11-03T01:04:04.549Z,95506.38
2023-11-03T01:06:31.650Z,95499.34
2023-11-03T01:08:58.799Z,95483.28
2023-11-03T01:11:27.807Z,95476.84
2023-11-03T01:13:55.242Z,95469.25
2023-11-03T01:16:23.776Z,95476.38
2023-11-03T01:18:51.278Z,95479.97
2023-11-03T01:21:19.672Z,95470.03
2023-11-03T01:23:51.183Z,95485.16
2023-11-03T01:26:18.340Z,95477.94
2023-11-03T01:28:45.552Z,95472.13
2023-11-03T01:31:14.016Z,95473.94
2023-11-03T01:33:45.066Z,95462.91
2023-11-03T01:36:12.763Z,95465.03
2023-11-03T01:38:43.367Z,95454.53
2023-11-03T01:41:10.703Z,95454.91
2023-11-03T01:43:37.966Z,95455.16
2023-11-03T01:46:05.136Z,95455.59
2023-11-03T01:48:33.601Z,95444.78
2023-11-03T01:51:05.197Z,95430.56
2023-11-03T01:53:33.397Z,95416.50
2023-11-03T01:56:01.424Z,95416.34
2023-11-03T01:58:28.993Z,95425.28
2023-11-03T02:00:56.197Z,95429.03
2023-11-03T02:03:23.547Z,95430.13
2023-11-03T02:05:51.235Z,95422.91
2023-11-03T02:08:18.632Z,95421.91
2023-11-03T02:10:46.113Z,95407.06
2023-11-03T02:13:14.543Z,95404.16
2023-11-03T02:15:41.814Z,95411.34
2023-11-03T02:18:11.030Z,95407.50
2023-11-03T02:20:38.133Z,95407.31
2023-11-03T02:23:05.468Z,95408.88
2023-11-03T02:25:33.050Z,95410.81
2023-11-03T02:28:00.409Z,95410.38
2023-11-03T02:30:28.055Z,95401.91
2023-11-03T02:32:55.419Z,95397.38
2023-11-03T02:35:22.481Z,95401.22
2023-11-03T02:37:49.528Z,95387.75
2023-11-03T02:40:16.764Z,95395.59
2023-11-03T02:42:43.945Z,95408.56
2023-11-03T02:45:12.038Z,95415.47
2023-11-03T02:47:39.160Z,95406.72
2023-11-03T02:50:07.398Z,95405.84
2023-11-03T02:52:34.591Z,95398.19
2023-11-03T02:55:01.739Z,95406.03
2023-11-03T02:57:28.859Z,95419.13
2023-11-03T02:59:55.911Z,95416.59
2023-11-03T03:02:23.051Z,95407.31
2023-11-03T03:04:50.180Z,95412.38
2023-11-03T03:07:19.063Z,95412.09
2023-11-03T03:09:46.134Z,95407.31
2023-11-03T03:12:13.210Z,95407.28
2023-11-03T03:14:40.526Z,95434.50
2023-11-03T03:17:08.136Z,95446.38
2023-11-03T03:19:35.477Z,95461.59
2023-11-03T03:22:02.612Z,95484.31
2023-11-03T03:24:29.750Z,95500.88
2023-11-03T03:26:57.038Z,95499.03
2023-11-03T03:29:25.207Z,95496.50
2023-11-03T03:31:52.254Z,95501.84
2023-11-03T03:34:19.954Z,95514.91
2023-11-03T03:36:47.128Z,95502.75
2023-11-03T03:39:14.270Z,95502.09
2023-11-03T03:41:41.358Z,95489.25
2023-11-03T03:44:08.455Z,95482.22
2023-11-03T03:46:39.051Z,95481.63
2023-11-03T03:49:07.072Z,95490.81
2023-11-03T03:51:34.177Z,95478.13
2023-11-03T03:54:01.442Z,95475.94
2023-11-03T03:56:28.732Z,95489.91
2023-11-03T03:58:59.145Z,95506.66
2023-11-03T04:01:26.180Z,95522.06
2023-11-03T04:03:53.932Z,95541.63
2023-11-03T04:06:21.763Z,95527.72
2023-11-03T04:08:49.015Z,95529.41
2023-11-03T04:11:16.622Z,95513.00
2023-11-03T04:13:44.018Z,95490.06
2023-11-03T04:16:12.171Z,95468.56
2023-11-03T04:18:44.226Z,95466.22
2023-11-03T04:21:12.027Z,95440.94
2023-11-03T04:23:40.207Z,95432.59
2023-11-03T04:26:07.982Z,95413.97
2023-11-03T04:28:36.789Z,95420.28
2023-11-03T04:31:04.996Z,95423.16
2023-11-03T04:33:32.131Z,95443.63
2023-11-03T04:35:59.410Z,95458.53
2023-11-03T04:38:27.046Z,95470.72
2023-11-03T04:40:54.323Z,95481.66
2023-11-03T04:43:22.470Z,95467.09
2023-11-03T04:45:49.962Z,95506.44
2023-11-03T04:48:17.317Z,95519.44
2023-11-03T04:50:44.916Z,95511.69
2023-11-03T04:53:12.252Z,95522.28
2023-11-03T04:55:40.901Z,95524.03
2023-11-03T04:58:08.298Z,95511.13
2023-11-03T05:00:37.900Z,95512.34
2023-11-03T05:03:05.386Z,95507.91
2023-11-03T05:05:33.931Z,95494.16
2023-11-03T05:08:04.271Z,95479.56
2023-11-03T05:10:31.376Z,95470.81
2023-11-03T05:13:01.360Z,95470.41
2023-11-03T05:15:29.053Z,95460.09
2023-11-03T05:17:56.596Z,95470.44
2023-11-03T05:20:23.859Z,95484.69
2023-11-03T05:22:51.020Z,95492.16
2023-11-03T05:25:18.417Z,95496.25
2023-11-03T05:27:45.943Z,95504.66
2023-11-03T05:30:13.801Z,95503.69
2023-11-03T05:32:40.871Z,95500.38
2023-11-03T05:35:09.453Z,95506.63
2023-11-03T05:37:36.545Z,95511.25
2023-11-03T05:40:06.709Z,95528.16
2023-11-03T05:42:34.335Z,95538.69
2023-11-03T05:45:01.842Z,95537.00
2023-11-03T05:47:29.824Z,95539.09
2023-11-03T05:49:57.399Z,95554.84
2023-11-03T05:52:25.242Z,95573.84
2023-11-03T05:54:53.961Z,95568.94
2023-11-03T05:57:21.529Z,95584.19
2023-11-03T05:59:48.621Z,95590.13
2023-11-03T06:02:16.938Z,95599.78
2023-11-03T06:04:44.640Z,95601.59
2023-11-03T06:07:13.163Z,95613.56
2023-11-03T06:09:40.668Z,95621.88
2023-11-03T06:12:09.419Z,95605.69
2023-11-03T06:14:36.743Z,95626.50
2023-11-03T06:17:04.108Z,95631.22
2023-11-03T06:19:31.267Z,95636.63
2023-11-03T06:21:58.365Z,95630.25
2023-11-03T06:24:25.378Z,95630.53
2023-11-03T06:26:53.353Z,95642.97
2023-11-03T06:29:20.380Z,95637.25
2023-11-03T06:31:47.473Z,95629.91
2023-11-03T06:34:14.687Z,95633.69
2023-11-03T06:36:47.541Z,95639.25
2023-11-03T06:39:17.581Z,95642.53
2023-11-03T06:41:45.334Z,95641.06
2023-11-03T06:44:13.511Z,95640.75
2023-11-03T06:46:40.838Z,95653.84
2023-11-03T06:49:08.131Z,95650.88
2023-11-03T06:51:35.391Z,95639.78
2023-11-03T06:54:02.710Z,95643.56
2023-11-03T06:56:29.715Z,95640.44
2023-11-03T06:58:56.769Z,95638.47
2023-11-03T07:01:25.191Z,95652.38
2023-11-03T07:03:53.023Z,95655.50
2023-11-03T07:06:23.070Z,95661.66
2023-11-03T07:08:50.225Z,95660.31
2023-11-03T07:11:18.061Z,95648.66
2023-11-03T07:13:45.366Z,95646.44
2023-11-03T07:16:14.745Z,95639.44
2023-11-03T07:18:47.826Z,95637.22
2023-11-03T07:21:16.772Z,95639.50
2023-11-03T07:23:44.378Z,95633.34
2023-11-03T07:26:14.791Z,95630.78
2023-11-03T07:28:45.857Z,95636.19
2023-11-03T07:31:13.270Z,95651.50
2023-11-03T07:33:43.141Z,95630.31
2023-11-03T07:36:12.110Z,95633.22
2023-11-03T07:38:40.931Z,95614.94
2023-11-03T07:41:10.149Z,95609.69
2023-11-03T07:43:40.712Z,95619.91
2023-11-03T07:46:08.110Z,95610.88
2023-11-03T07:48:35.482Z,95602.69
2023-11-03T07:51:03.494Z,95605.03
2023-11-03T07:53:30.570Z,95598.81
2023-11-03T07:55:57.561Z,95591.13
2023-11-03T07:58:25.066Z,95609.81
2023-11-03T08:00:52.349Z,95602.22
2023-11-03T08:03:20.134Z,95612.19
2023-11-03T08:05:47.624Z,95628.78
2023-11-03T08:08:15.486Z,95627.38
2023-11-03T08:10:42.802Z,95658.63
2023-11-03T08:13:12.239Z,95670.56
2023-11-03T08:15:39.576Z,95696.34
2023-11-03T08:18:09.357Z,95710.09
2023-11-03T08:20:36.406Z,95716.53
2023-11-03T08:23:04.421Z,95727.19
2023-11-03T08:25:31.818Z,95729.84
2023-11-03T08:27:59.386Z,95734.69
2023-11-03T08:30:26.697Z,95731.16
2023-11-03T08:32:55.026Z,95741.28
2023-11-03T08:35:23.520Z,95738.34
2023-11-03T08:37:53.785Z,95753.13
2023-11-03T08:40:22.694Z,95758.53
2023-11-03T08:42:51.166Z,95749.03
2023-11-03T08:45:19.528Z,95763.38
2023-11-03T08:47:47.332Z,95768.47
2023-11-03T08:50:18.425Z,95773.13
2023-11-03T08:52:46.412Z,95784.06
2023-11-03T08:55:14.350Z,95794.03
2023-11-03T08:57:42.383Z,95806.22
2023-11-03T09:00:10.926Z,95799.47
2023-11-03T09:02:38.557Z,95801.22
2023-11-03T09:05:06.367Z,95806.47
2023-11-03T09:07:34.534Z,95816.00
2023-11-03T09:10:01.515Z,95815.78
2023-11-03T09:12:28.717Z,95814.16
2023-11-03T09:14:55.735Z,95806.72
2023-11-03T09:17:23.064Z,95805.84
2023-11-03T09:19:52.660Z,95808.28
2023-11-03T09:22:28.242Z,95809.09
2023-11-03T09:24:58.757Z,95811.78
2023-11-03T09:27:27.762Z,95806.59
2023-11-03T09:29:54.808Z,95809.44
2023-11-03T09:32:22.208Z,95811.28
2023-11-03T09:34:49.953Z,95806.69
2023-11-03T09:37:17.524Z,95813.63
2023-11-03T09:39:44.756Z,95818.06
2023-11-03T09:42:12.829Z,95818.78
2023-11-03T09:44:40.522Z,95816.47
2023-11-03T09:47:07.789Z,95813.31
2023-11-03T09:49:35.001Z,95828.97
2023-11-03T09:52:04.548Z,95816.38
2023-11-03T09:54:33.760Z,95827.72
2023-11-03T09:57:01.075Z,95819.81
2023-11-03T09:59:28.333Z,95816.50
2023-11-03T10:01:55.580Z,95819.47
2023-11-03T10:04:23.234Z,95811.69
2023-11-03T10:06:50.858Z,95816.31
2023-11-03T10:09:17.926Z,95810.78
2023-11-03T10:11:45.752Z,95807.59
2023-11-03T10:14:13.042Z,95801.41
2023-11-03T10:16:40.568Z,95811.91
2023-11-03T10:19:07.559Z,95804.19
2023-11-03T10:21:35.237Z,95807.28
2023-11-03T10:24:02.422Z,95806.31
2023-11-03T10:26:29.806Z,95803.03
2023-11-03T10:28:57.014Z,95797.03
2023-11-03T10:31:24.167Z,95803.75
2023-11-03T10:33:52.398Z,95797.41
2023-11-03T10:36:20.557Z,95803.81
2023-11-03T10:38:56.849Z,95805.09
2023-11-03T10:41:27.103Z,95802.03
2023-11-03T10:43:58.907Z,95802.22
2023-11-03T10:46:39.420Z,95788.47
2023-11-03T10:49:17.307Z,95806.78
2023-11-03T10:52:14.107Z,95796.88
2023-11-03T10:55:08.634Z,95797.69
2023-11-03T10:57:40.963Z,95798.69
2023-11-03T11:00:27.827Z,95801.81
2023-11-03T11:03:26.278Z,95790.56
2023-11-03T11:05:59.302Z,95797.00
2023-11-03T11:08:28.441Z,95795.38
2023-11-03T11:10:59.023Z,95794.75
2023-11-03T11:13:28.280Z,95795.81
2023-11-03T11:15:58.748Z,95796.53
2023-11-03T11:18:29.021Z,95796.16
2023-11-03T11:20:57.762Z,95798.94
2023-11-03T11:23:25.309Z,95795.56
2023-11-03T11:25:52.244Z,95801.41
2023-11-03T11:28:33.408Z,95805.50
2023-11-03T11:31:00.859Z,95801.13
2023-11-03T11:33:30.871Z,95809.84
2023-11-03T11:35:57.950Z,95804.03
2023-11-03T11:38:27.982Z,95803.88
2023-11-03T11:40:55.864Z,95811.44
2023-11-03T11:43:31.350Z,95815.06
2023-11-03T11:46:05.262Z,95808.03
2023-11-03T11:48:32.464Z,95812.19
2023-11-03T11:50:59.482Z,95806.94
2023-11-03T11:53:26.434Z,95802.19
2023-11-03T11:55:53.509Z,95807.03
2023-11-03T11:58:20.975Z,95805.44
2023-11-03T12:00:48.161Z,95801.28
2023-11-03T12:03:17.265Z,95802.34
2023-11-03T12:05:45.480Z,95809.50
2023-11-03T12:08:12.498Z,95813.66
2023-11-03T12:10:39.560Z,95811.03
2023-11-03T12:13:07.104Z,95803.28
2023-11-03T12:15:34.413Z,95807.91
2023-11-03T12:18:02.127Z,95807.09
2023-11-03T12:20:29.305Z,95818.59
2023-11-03T12:22:56.516Z,95810.31
2023-11-03T12:25:24.444Z,95817.97
2023-11-03T12:27:55.957Z,95802.78
2023-11-03T12:30:23.246Z,95794.78
2023-11-03T12:32:51.408Z,95799.84
2023-11-03T12:35:19.725Z,95784.13
2023-11-03T12:37:48.300Z,95809.53
2023-11-03T12:40:22.857Z,95807.88
2023-11-03T12:42:49.894Z,95812.59
2023-11-03T12:45:23.264Z,95808.78
2023-11-03T12:47:55.340Z,95815.06
2023-11-03T12:50:27.141Z,95815.59
2023-11-03T12:52:57.272Z,95825.88
2023-11-03T12:55:29.282Z,95820.44
2023-11-03T12:57:58.676Z,95821.50
2023-11-03T13:00:28.941Z,95822.41
2023-11-03T13:02:56.549Z,95824.78
2023-11-03T13:05:24.943Z,95826.34
2023-11-03T13:07:53.458Z,95829.00
2023-11-03T13:10:22.082Z,95829.09
2023-11-03T13:12:50.427Z,95831.19
2023-11-03T13:15:17.612Z,95826.34
2023-11-03T13:17:44.895Z,95834.16
2023-11-03T13:20:19.865Z,95834.09
2023-11-03T13:22:50.159Z,95833.72
2023-11-03T13:25:18.722Z,95837.19
2023-11-03T13:27:46.000Z,95831.09
2023-11-03T13:30:13.173Z,95838.47
2023-11-03T13:32:44.168Z,95844.19
2023-11-03T13:35:11.941Z,95833.19
2023-11-03T13:37:39.411Z,95851.53
2023-11-03T13:40:07.804Z,95862.19
2023-11-03T13:42:35.149Z,95867.00
2023-11-03T13:45:02.337Z,95870.03
2023-11-03T13:47:29.552Z,95866.63
2023-11-03T13:50:03.836Z,95864.91
2023-11-03T13:52:36.052Z,95871.63
2023-11-03T13:55:03.544Z,95858.22
2023-11-03T13:57:30.640Z,95878.34
2023-11-03T13:59:58.373Z,95885.25
2023-11-03T14:02:29.027Z,95891.06
2023-11-03T14:04:56.302Z,95890.59
2023-11-03T14:07:23.756Z,95903.47
2023-11-03T14:09:51.246Z,95896.28
2023-11-03T14:12:21.394Z,95909.41
2023-11-03T14:14:49.863Z,95906.00
2023-11-03T14:17:16.842Z,95911.22
2023-11-03T14:19:43.954Z,95916.03
2023-11-03T14:22:11.147Z,95923.47
2023-11-03T14:24:38.375Z,95921.34
2023-11-03T14:27:07.561Z,95935.72
2023-11-03T14:29:38.965Z,95940.91
2023-11-03T14:32:06.549Z,95934.41
2023-11-03T14:34:33.851Z,95935.44
2023-11-03T14:37:01.077Z,95946.69
2023-11-03T14:39:29.433Z,95937.31
2023-11-03T14:41:56.944Z,95945.72
2023-11-03T14:44:23.880Z,95945.41
2023-11-03T14:46:52.902Z,95946.25
2023-11-03T14:49:21.127Z,95953.91
2023-11-03T14:51:48.631Z,95959.50
2023-11-03T14:54:16.073Z,95957.56
2023-11-03T14:56:43.660Z,95954.41
2023-11-03T14:59:11.153Z,95945.81
2023-11-03T15:01:38.624Z,95958.19
2023-11-03T15:04:06.217Z,95963.13
2023-11-03T15:06:34.118Z,95955.34
2023-11-03T15:09:01.396Z,95959.47
2023-11-03T15:11:29.367Z,95958.78
2023-11-03T15:13:59.657Z,95964.06
2023-11-03T15:16:30.364Z,95964.72
2023-11-03T15:18:58.690Z,95972.78
2023-11-03T15:21:26.278Z,95977.03
2023-11-03T15:23:53.644Z,95972.13
2023-11-03T15:26:20.968Z,95971.78
2023-11-03T15:28:48.050Z,95968.22
2023-11-03T15:31:15.099Z,95976.13
2023-11-03T15:33:42.371Z,95982.06
2023-11-03T15:36:09.862Z,95991.59
2023-11-03T15:38:37.772Z,95990.44
2023-11-03T15:41:04.840Z,95984.69
2023-11-03T15:43:34.811Z,95998.16
2023-11-03T15:46:05.020Z,95997.84
2023-11-03T15:48:32.803Z,95997.19
2023-11-03T15:50:59.873Z,95994.19
2023-11-03T15:53:28.979Z,96000.00
2023-11-03T15:55:57.341Z,96000.16
2023-11-03T15:58:25.095Z,96015.31
2023-11-03T16:00:54.902Z,96008.19
2023-11-03T16:03:23.191Z,96016.59
2023-11-03T16:05:51.423Z,96012.50
2023-11-03T16:08:18.706Z,96004.59
2023-11-03T16:10:46.560Z,96001.47
2023-11-03T16:13:15.213Z,95998.31
2023-11-03T16:15:42.878Z,95989.91
2023-11-03T16:18:11.176Z,95985.31
2023-11-03T16:20:38.248Z,95985.47
2023-11-03T16:23:05.374Z,95976.75
2023-11-03T16:25:32.553Z,95980.72
2023-11-03T16:27:59.535Z,95987.41
2023-11-03T16:30:26.783Z,95986.28
2023-11-03T16:32:54.670Z,95984.78
2023-11-03T16:35:21.747Z,95983.16
2023-11-03T16:37:50.354Z,95977.03
2023-11-03T16:40:19.568Z,95994.63
2023-11-03T16:42:47.159Z,95983.28
2023-11-03T16:45:14.883Z,95992.13
2023-11-03T16:47:42.918Z,95989.00
2023-11-03T16:50:12.406Z,96001.16
2023-11-03T16:52:41.242Z,95988.16
2023-11-03T16:55:10.192Z,95987.81
2023-11-03T16:57:38.718Z,95992.41
2023-11-03T17:00:12.895Z,95996.38
2023-11-03T17:02:45.165Z,96001.28
2023-11-03T17:05:16.062Z,96004.22
2023-11-03T17:07:43.897Z,95998.47
2023-11-03T17:10:12.129Z,96005.06
2023-11-03T17:12:52.933Z,96002.41
2023-11-03T17:15:27.534Z,96004.69
2023-11-03T17:17:54.643Z,96006.06
2023-11-03T17:20:22.223Z,96000.66
2023-11-03T17:22:49.339Z,96006.59
2023-11-03T17:25:17.109Z,96021.38
2023-11-03T17:27:44.599Z,96000.66
2023-11-03T17:30:20.971Z,96016.56
2023-11-03T17:32:52.618Z,96020.38
2023-11-03T17:35:23.845Z,96005.28
2023-11-03T17:37:59.034Z,96015.66
2023-11-03T17:40:28.211Z,96024.94
2023-11-03T17:42:55.728Z,96031.06
2023-11-03T17:45:23.041Z,96043.63
2023-11-03T17:47:51.577Z,96041.97
2023-11-03T17:50:20.704Z,96039.84
2023-11-03T17:52:48.727Z,96045.50
2023-11-03T17:55:15.773Z,96046.31
2023-11-03T17:57:44.635Z,96049.53
2023-11-03T18:00:14.832Z,96055.72
2023-11-03T18:02:43.795Z,96059.16
2023-11-03T18:05:14.472Z,96062.75
2023-11-03T18:07:41.828Z,96063.63
2023-11-03T18:10:12.870Z,96060.09
2023-11-03T18:12:41.251Z,96064.66
2023-11-03T18:15:11.300Z,96068.06
2023-11-03T18:17:42.648Z,96062.53
2023-11-03T18:20:15.095Z,96076.97
2023-11-03T18:22:46.432Z,96068.00
2023-11-03T18:25:13.611Z,96072.97
2023-11-03T18:27:40.746Z,96073.09
2023-11-03T18:30:08.763Z,96081.31
2023-11-03T18:32:35.813Z,96080.13
2023-11-03T18:35:06.132Z,96076.84
2023-11-03T18:37:34.494Z,96073.56
2023-11-03T18:40:01.652Z,96070.56
2023-11-03T18:42:30.800Z,96068.75
2023-11-03T18:45:01.105Z,96067.28
2023-11-03T18:47:30.178Z,96068.75
2023-11-03T18:52:32.145Z,96081.78
2023-11-03T18:55:56.712Z,96083.75
2023-11-03T18:58:31.269Z,96080.44
2023-11-03T19:07:22.014Z,96090.09
2023-11-03T19:08:26.432Z,96090.84
2023-11-03T19:10:55.674Z,96103.06
2023-11-03T19:13:22.928Z,96100.97
2023-11-03T19:15:52.318Z,96108.00
2023-11-03T19:18:21.664Z,96126.09
2023-11-03T19:20:49.188Z,96120.97
2023-11-03T19:23:16.347Z,96117.69
2023-11-03T19:25:43.733Z,96121.81
2023-11-03T19:28:14.121Z,96127.41
2023-11-03T19:30:42.563Z,96134.25
2023-11-03T19:33:12.222Z,96136.88
2023-11-03T19:35:44.976Z,96135.72
2023-11-03T19:38:14.007Z,96122.22
2023-11-03T19:40:42.754Z,96132.06
2023-11-03T19:43:10.234Z,96136.84
2023-11-03T19:45:39.397Z,96136.34
2023-11-03T19:48:09.708Z,96134.31
2023-11-03T19:50:36.823Z,96144.50
2023-11-03T19:53:06.588Z,96148.44
2023-11-03T19:55:34.586Z,96152.03
2023-11-03T19:58:01.730Z,96148.59
2023-11-03T20:00:30.746Z,96153.25
2023-11-03T20:02:58.449Z,96153.44
2023-11-03T20:05:25.864Z,96157.19
2023-11-03T20:07:53.055Z,96160.66
2023-11-03T20:10:21.177Z,96163.28
2023-11-03T20:12:48.391Z,96161.31
2023-11-03T20:15:15.918Z,96162.28
2023-11-03T20:17:43.393Z,96159.66
2023-11-03T20:20:10.749Z,96163.66
2023-11-03T20:22:37.741Z,96165.97
2023-11-03T20:25:05.625Z,96167.66
2023-11-03T20:27:36.060Z,96168.91
2023-11-03T20:30:06.218Z,96174.16
2023-11-03T20:32:34.388Z,96138.06
2023-11-03T20:35:03.526Z,96165.78
2023-11-03T20:37:30.600Z,96163.16
2023-11-03T20:39:57.702Z,96183.25
2023-11-03T20:42:24.749Z,96178.47
2023-11-03T20:44:52.484Z,96175.19
2023-11-03T20:47:20.461Z,96166.78
2023-11-03T20:49:47.598Z,96173.88
2023-11-03T20:52:15.233Z,96166.28
2023-11-03T20:54:42.578Z,96139.88
2023-11-03T20:57:10.675Z,96168.00
2023-11-03T20:59:37.871Z,96175.38
2023-11-03T21:02:04.954Z,96160.00
2023-11-03T21:04:32.051Z,96177.34
2023-11-03T21:06:59.136Z,96168.19
2023-11-03T21:09:26.902Z,96165.69
2023-11-03T21:11:54.008Z,96168.56
2023-11-03T21:14:21.355Z,96173.53
2023-11-03T21:16:48.636Z,96179.75
2023-11-03T21:19:15.785Z,96167.69
2023-11-03T21:21:42.840Z,96180.34
2023-11-03T21:24:11.713Z,96183.66
2023-11-03T21:26:38.875Z,96189.41
2023-11-03T21:29:07.398Z,96181.94
2023-11-03T21:31:36.070Z,96187.78
2023-11-03T21:34:03.477Z,96192.44
2023-11-03T21:36:30.888Z,96183.72
2023-11-03T21:38:58.061Z,96196.56
2023-11-03T21:41:25.309Z,96184.03
2023-11-03T21:43:53.710Z,96193.09
2023-11-03T21:46:25.178Z,96176.91
2023-11-03T21:48:53.002Z,96188.53
2023-11-03T21:51:20.946Z,96194.84
2023-11-03T21:53:48.867Z,96187.28
2023-11-03T21:56:16.090Z,96190.34
2023-11-03T21:58:43.615Z,96196.41
2023-11-03T22:01:11.630Z,96197.09
2023-11-03T22:03:39.037Z,96192.69
2023-11-03T22:06:06.805Z,96191.19
2023-11-03T22:08:34.797Z,96199.28
2023-11-03T22:11:01.969Z,96193.75
2023-11-03T22:13:30.063Z,96196.31
2023-11-03T22:15:58.891Z,96187.34
2023-11-03T22:18:26.005Z,96175.00
2023-11-03T22:20:54.617Z,96152.59
2023-11-03T22:23:21.854Z,96163.72
2023-11-03T22:25:49.217Z,96163.41
2023-11-03T22:28:16.191Z,96162.22
2023-11-03T22:30:43.438Z,96163.22
2023-11-03T22:33:13.055Z,96164.03
2023-11-03T22:35:42.222Z,96158.47
2023-11-03T22:38:09.921Z,96167.50
2023-11-03T22:40:37.035Z,96164.03
2023-11-03T22:43:04.101Z,96167.53
2023-11-03T22:45:31.281Z,96168.44
2023-11-03T22:47:59.615Z,96164.38
2023-11-03T22:50:27.283Z,96152.13
2023-11-03T22:52:54.605Z,96153.47
2023-11-03T22:55:23.765Z,96147.56
2023-11-03T22:57:51.451Z,96163.72
2023-11-03T23:00:25.873Z,96158.63
2023-11-03T23:02:53.614Z,96156.81
2023-11-03T23:05:21.221Z,96149.38
2023-11-03T23:07:48.749Z,96151.56
2023-11-03T23:10:15.750Z,96164.38
2023-11-03T23:12:42.798Z,96164.38
2023-11-03T23:15:10.276Z,96171.56
2023-11-03T23:17:37.581Z,96157.09
2023-11-03T23:20:17.139Z,96175.81
2023-11-03T23:22:45.067Z,96168.94
2023-11-03T23:25:12.515Z,96167.28
2023-11-03T23:27:43.533Z,96173.56
2023-11-03T23:30:11.732Z,96181.56
2023-11-03T23:32:38.829Z,96180.75
2023-11-03T23:35:06.366Z,96183.84
2023-11-03T23:37:33.457Z,96175.22
2023-11-03T23:40:00.420Z,96177.75
2023-11-03T23:42:27.437Z,96168.88
2023-11-03T23:44:54.944Z,96154.94
2023-11-03T23:47:23.078Z,96157.69
2023-11-03T23:49:49.973Z,96151.94
2023-11-03T23:52:16.908Z,96140.16
2023-11-03T23:54:43.866Z,96142.13
2023-11-03T23:57:10.927Z,96138.63
2023-11-03T23:59:38.153Z,96137.97
